createdAt,value
2017-10-20T00:00:49.657Z,98.60
2017-10-20T00:03:17.969Z,98.60
2017-10-20T00:05:46.344Z,98.20
2017-10-20T00:08:15.414Z,98.10
2017-10-20T00:10:43.769Z,98.10
2017-10-20T00:13:12.111Z,98.60
2017-10-20T00:15:40.517Z,99.00
2017-10-20T00:18:08.851Z,99.20
2017-10-20T00:20:38.376Z,98.90
2017-10-20T00:23:08.515Z,99.50
2017-10-20T00:25:39.307Z,99.70
2017-10-20T00:28:08.021Z,99.90
2017-10-20T00:30:37.957Z,99.90
2017-10-20T00:33:08.210Z,99.70
2017-10-20T00:35:37.323Z,99.60
2017-10-20T00:38:06.672Z,99.70
2017-10-20T00:40:36.848Z,99.70
2017-10-20T00:43:08.150Z,99.60
2017-10-20T00:45:36.627Z,99.50
2017-10-20T00:48:05.700Z,99.20
2017-10-20T00:50:37.660Z,99.70
2017-10-20T00:53:07.307Z,99.60
2017-10-20T00:55:35.604Z,99.50
2017-10-20T00:58:03.903Z,99.20
2017-10-20T01:00:32.203Z,98.90
2017-10-20T01:03:00.507Z,98.10
2017-10-20T01:05:28.795Z,98.80
2017-10-20T01:07:57.114Z,99.00
2017-10-20T01:10:25.428Z,98.80
2017-10-20T01:12:53.736Z,97.90
2017-10-20T01:15:22.910Z,98.60
2017-10-20T01:17:51.230Z,98.60
2017-10-20T01:20:19.575Z,98.50
2017-10-20T01:22:47.927Z,98.40
2017-10-20T01:25:16.224Z,98.60
2017-10-20T01:27:44.543Z,98.90
2017-10-20T01:30:12.901Z,99.90
2017-10-20T01:32:41.198Z,99.90
2017-10-20T01:35:09.534Z,99.90
2017-10-20T01:37:37.850Z,99.90
2017-10-20T01:40:06.756Z,99.90
2017-10-20T01:42:35.110Z,99.90
2017-10-20T01:45:03.407Z,99.90
2017-10-20T01:47:31.736Z,99.90
2017-10-20T01:50:00.028Z,99.90
2017-10-20T01:52:29.111Z,99.90
2017-10-20T01:54:57.414Z,99.90
2017-10-20T01:57:26.328Z,99.90
2017-10-20T01:59:54.667Z,99.90
2017-10-20T02:02:23.815Z,99.90
2017-10-20T02:04:52.244Z,99.90
2017-10-20T02:07:20.563Z,99.90
2017-10-20T02:09:49.027Z,99.90
2017-10-20T02:12:17.389Z,99.90
2017-10-20T02:14:46.448Z,99.90
2017-10-20T02:17:14.784Z,99.90
2017-10-20T02:19:43.079Z,99.90
2017-10-20T02:22:11.385Z,99.90
2017-10-20T02:24:39.714Z,99.90
2017-10-20T02:27:08.077Z,99.90
2017-10-20T02:29:36.416Z,99.90
2017-10-20T02:32:12.807Z,99.90
2017-10-20T02:34:41.106Z,99.90
2017-10-20T02:37:09.494Z,99.90
2017-10-20T02:39:38.627Z,99.90
2017-10-20T02:42:06.972Z,99.90
2017-10-20T02:44:35.311Z,99.90
2017-10-20T02:47:03.607Z,99.90
2017-10-20T02:49:31.937Z,99.90
2017-10-20T02:52:00.284Z,99.90
2017-10-20T02:54:30.104Z,99.90
2017-10-20T02:56:58.481Z,99.90
2017-10-20T02:59:26.803Z,99.90
2017-10-20T03:01:55.116Z,99.90
2017-10-20T03:04:23.404Z,99.90
2017-10-20T03:06:51.733Z,99.90
2017-10-20T03:09:20.015Z,99.90
2017-10-20T03:11:48.335Z,99.90
2017-10-20T03:14:16.619Z,99.90
2017-10-20T03:16:45.741Z,99.90
2017-10-20T03:19:14.030Z,99.90
2017-10-20T03:21:42.340Z,99.90
2017-10-20T03:24:10.644Z,99.90
2017-10-20T03:26:38.952Z,99.90
2017-10-20T03:29:07.258Z,99.90
2017-10-20T03:31:35.585Z,99.90
2017-10-20T03:34:04.724Z,99.90
2017-10-20T03:36:33.028Z,99.90
2017-10-20T03:39:01.363Z,99.90
2017-10-20T03:41:29.654Z,99.90
2017-10-20T03:43:57.959Z,99.90
2017-10-20T03:46:26.292Z,99.90
2017-10-20T03:48:55.360Z,99.90
2017-10-20T03:51:23.692Z,99.90
2017-10-20T03:53:52.042Z,99.90
2017-10-20T03:56:20.344Z,99.90
2017-10-20T03:58:48.646Z,99.90
2017-10-20T04:01:17.055Z,99.90
2017-10-20T04:03:45.383Z,99.90
2017-10-20T04:06:13.732Z,99.90
2017-10-20T04:08:42.788Z,99.90
2017-10-20T04:11:11.107Z,99.90
2017-10-20T04:13:39.425Z,99.90
2017-10-20T04:16:07.729Z,99.90
2017-10-20T04:18:36.080Z,99.90
2017-10-20T04:21:08.813Z,99.90
2017-10-20T04:23:38.133Z,99.90
2017-10-20T04:26:06.419Z,99.90
2017-10-20T04:28:34.743Z,99.90
2017-10-20T04:31:03.062Z,99.90
2017-10-20T04:33:31.438Z,99.90
2017-10-20T04:35:59.762Z,99.90
2017-10-20T04:38:29.951Z,99.90
2017-10-20T04:40:58.883Z,99.90
2017-10-20T04:43:27.283Z,99.90
2017-10-20T04:45:56.185Z,99.90
2017-10-20T04:48:24.506Z,99.90
2017-10-20T04:50:52.832Z,99.90
2017-10-20T04:53:21.118Z,99.90
2017-10-20T04:55:50.033Z,99.90
2017-10-20T04:58:18.408Z,99.90
2017-10-20T05:00:47.828Z,99.90
2017-10-20T05:03:17.126Z,99.90
2017-10-20T05:05:45.444Z,99.90
2017-10-20T05:08:13.740Z,99.90
2017-10-20T05:10:42.052Z,99.90
2017-10-20T05:13:10.360Z,99.90
2017-10-20T05:15:38.773Z,99.90
2017-10-20T05:18:07.098Z,99.90
2017-10-20T05:20:35.622Z,99.90
2017-10-20T05:23:03.941Z,99.90
2017-10-20T05:25:32.412Z,99.90
2017-10-20T05:28:00.817Z,99.90
2017-10-20T05:30:29.141Z,99.90
2017-10-20T05:32:57.464Z,99.90
2017-10-20T05:35:25.866Z,99.90
2017-10-20T05:37:54.262Z,99.90
2017-10-20T05:40:22.549Z,99.90
2017-10-20T05:42:50.854Z,99.90
2017-10-20T05:45:19.936Z,99.90
2017-10-20T05:47:49.596Z,99.90
2017-10-20T05:50:18.237Z,99.90
2017-10-20T05:52:46.594Z,99.90
2017-10-20T05:55:14.912Z,99.90
2017-10-20T05:57:44.188Z,99.90
2017-10-20T06:00:13.299Z,99.90
2017-10-20T06:02:41.608Z,99.90
2017-10-20T06:05:10.713Z,99.90
2017-10-20T06:07:39.056Z,99.90
2017-10-20T06:10:08.090Z,99.90
2017-10-20T06:12:36.393Z,99.90
2017-10-20T06:15:04.696Z,99.90
2017-10-20T06:17:43.723Z,99.90
2017-10-20T06:20:12.016Z,99.90
2017-10-20T06:22:40.324Z,99.90
2017-10-20T06:25:14.385Z,99.90
2017-10-20T06:27:42.792Z,99.90
2017-10-20T06:30:11.981Z,99.90
2017-10-20T06:32:41.062Z,99.90
2017-10-20T06:35:10.145Z,99.90
2017-10-20T06:37:38.454Z,99.90
2017-10-20T06:40:06.815Z,99.90
2017-10-20T06:42:35.096Z,99.90
2017-10-20T06:45:03.394Z,99.90
2017-10-20T06:47:35.110Z,99.90
2017-10-20T06:50:04.158Z,99.90
2017-10-20T06:52:32.499Z,99.90
2017-10-20T06:55:00.832Z,99.90
2017-10-20T06:57:29.544Z,99.90
2017-10-20T06:59:58.021Z,99.90
2017-10-20T07:02:27.110Z,99.90
2017-10-20T07:04:56.219Z,99.90
2017-10-20T07:07:24.553Z,99.90
2017-10-20T07:10:03.228Z,99.90
2017-10-20T07:12:31.637Z,99.90
2017-10-20T07:14:59.940Z,99.90
2017-10-20T07:17:28.276Z,99.90
2017-10-20T07:19:59.307Z,99.90
2017-10-20T07:22:27.644Z,99.90
2017-10-20T07:24:55.943Z,99.90
2017-10-20T07:27:24.257Z,99.90
2017-10-20T07:29:52.592Z,99.90
2017-10-20T07:32:20.944Z,99.90
2017-10-20T07:34:50.076Z,99.90
2017-10-20T07:37:18.391Z,99.90
2017-10-20T07:39:46.733Z,99.90
2017-10-20T07:42:15.075Z,99.90
2017-10-20T07:44:44.211Z,99.90
2017-10-20T07:47:12.511Z,99.90
2017-10-20T07:49:40.813Z,99.90
2017-10-20T07:52:09.542Z,99.90
2017-10-20T07:54:38.596Z,99.90
2017-10-20T07:57:07.695Z,99.90
2017-10-20T07:59:36.971Z,99.90
2017-10-20T08:02:06.069Z,99.90
2017-10-20T08:04:34.363Z,99.90
2017-10-20T08:07:02.659Z,99.90
2017-10-20T08:09:31.771Z,99.90
2017-10-20T08:12:00.091Z,99.90
2017-10-20T08:14:30.746Z,99.90
2017-10-20T08:16:59.155Z,99.90
2017-10-20T08:19:27.715Z,99.90
2017-10-20T08:21:56.167Z,99.90
2017-10-20T08:24:24.637Z,99.90
2017-10-20T08:26:52.984Z,98.40
2017-10-20T08:29:21.585Z,99.90
2017-10-20T08:31:49.917Z,99.90
2017-10-20T08:34:19.526Z,99.90
2017-10-20T08:36:49.305Z,99.90
2017-10-20T08:39:25.634Z,99.90
2017-10-20T08:42:00.767Z,99.90
2017-10-20T08:44:30.340Z,99.40
2017-10-20T08:47:01.219Z,96.00
2017-10-20T08:49:29.550Z,96.40
2017-10-20T08:51:57.865Z,97.00
2017-10-20T08:54:26.179Z,95.50
2017-10-20T08:56:54.488Z,95.20
2017-10-20T08:59:27.488Z,95.40
2017-10-20T09:01:55.816Z,93.70
2017-10-20T09:04:24.180Z,97.30
2017-10-20T09:06:53.532Z,98.10
2017-10-20T09:09:22.674Z,97.50
2017-10-20T09:11:51.036Z,97.50
2017-10-20T09:14:23.013Z,94.40
2017-10-20T09:16:51.377Z,96.00
2017-10-20T09:19:20.691Z,98.30
2017-10-20T09:21:52.161Z,99.90
2017-10-20T09:24:20.477Z,99.90
2017-10-20T09:26:49.484Z,99.90
2017-10-20T09:29:19.424Z,99.90
2017-10-20T09:31:48.536Z,99.90
2017-10-20T09:34:17.899Z,99.90
2017-10-20T09:36:46.256Z,99.90
2017-10-20T09:39:14.571Z,99.90
2017-10-20T09:41:44.098Z,99.90
2017-10-20T09:44:12.419Z,99.90
2017-10-20T09:46:40.702Z,99.90
2017-10-20T09:49:09.802Z,99.90
2017-10-20T09:51:39.031Z,99.90
2017-10-20T09:54:07.324Z,98.10
2017-10-20T09:56:36.428Z,97.80
2017-10-20T09:59:06.888Z,97.80
2017-10-20T10:01:35.333Z,95.10
2017-10-20T10:04:03.754Z,91.60
2017-10-20T10:06:32.811Z,88.20
2017-10-20T10:09:01.158Z,88.00
2017-10-20T10:11:29.467Z,80.20
2017-10-20T10:13:57.825Z,74.30
2017-10-20T10:16:26.144Z,74.50
2017-10-20T10:18:55.284Z,71.80
2017-10-20T10:21:24.424Z,69.30
2017-10-20T10:23:52.823Z,69.90
2017-10-20T10:26:22.401Z,65.40
2017-10-20T10:28:50.812Z,63.10
2017-10-20T10:31:21.676Z,66.60
2017-10-20T10:33:51.730Z,73.20
2017-10-20T10:36:20.118Z,70.70
2017-10-20T10:38:49.559Z,72.10
2017-10-20T10:41:19.391Z,72.70
2017-10-20T10:43:48.262Z,90.40
2017-10-20T10:46:17.308Z,81.10
2017-10-20T10:48:45.984Z,75.20
2017-10-20T10:51:21.062Z,87.20
2017-10-20T10:53:50.949Z,76.20
2017-10-20T10:56:22.100Z,74.00
2017-10-20T10:58:51.224Z,74.40
2017-10-20T11:01:20.472Z,74.50
2017-10-20T11:03:49.618Z,74.10
2017-10-20T11:06:35.675Z,73.70
2017-10-20T11:09:19.451Z,73.00
2017-10-20T11:12:05.571Z,73.00
2017-10-20T11:14:33.915Z,72.00
2017-10-20T11:17:02.314Z,72.10
2017-10-20T11:19:30.772Z,74.00
2017-10-20T11:21:59.071Z,74.60
2017-10-20T11:24:27.375Z,74.10
2017-10-20T11:26:56.540Z,94.80
2017-10-20T11:29:24.848Z,99.90
2017-10-20T11:31:53.916Z,99.90
2017-10-20T11:34:22.249Z,87.00
2017-10-20T11:36:50.558Z,91.00
2017-10-20T11:39:19.704Z,91.30
2017-10-20T11:41:48.257Z,90.20
2017-10-20T11:44:16.605Z,90.10
2017-10-20T11:46:44.897Z,89.60
2017-10-20T11:49:13.215Z,99.90
2017-10-20T11:51:41.570Z,99.90
2017-10-20T11:54:10.866Z,99.90
2017-10-20T11:56:39.229Z,99.90
2017-10-20T11:59:07.705Z,99.90
2017-10-20T12:04:10.234Z,84.10
2017-10-20T12:06:38.538Z,84.10
2017-10-20T12:09:06.847Z,83.20
2017-10-20T12:11:35.440Z,83.30
2017-10-20T12:14:04.518Z,83.20
2017-10-20T12:16:33.599Z,85.40
2017-10-20T12:19:02.705Z,83.40
2017-10-20T12:21:31.463Z,83.60
2017-10-20T12:26:29.567Z,85.20
2017-10-20T12:28:57.924Z,87.30
2017-10-20T12:31:26.352Z,91.60
2017-10-20T12:33:54.660Z,91.50
2017-10-20T12:36:23.012Z,92.00
2017-10-20T12:38:52.770Z,93.30
2017-10-20T12:41:21.097Z,95.00
2017-10-20T12:43:49.409Z,91.90
2017-10-20T12:46:17.750Z,90.90
2017-10-20T12:48:46.069Z,90.90
2017-10-20T12:51:14.429Z,89.00
2017-10-20T12:53:42.765Z,87.10
2017-10-20T12:56:11.083Z,87.10
2017-10-20T12:58:39.396Z,88.90
2017-10-20T13:01:07.797Z,90.10
2017-10-20T13:03:36.108Z,90.90
2017-10-20T13:06:05.181Z,84.70
2017-10-20T13:08:34.300Z,82.50
2017-10-20T13:11:02.611Z,82.50
2017-10-20T13:13:30.898Z,79.50
2017-10-20T13:15:59.217Z,79.30
2017-10-20T13:18:27.587Z,79.60
2017-10-20T13:20:55.891Z,76.30
2017-10-20T13:23:24.182Z,77.20
2017-10-20T13:25:52.519Z,74.00
2017-10-20T13:28:20.850Z,73.00
2017-10-20T13:30:49.189Z,72.90
2017-10-20T13:33:17.494Z,73.70
2017-10-20T13:35:45.795Z,71.90
2017-10-20T13:38:15.091Z,72.50
2017-10-20T13:40:43.400Z,72.50
2017-10-20T13:43:11.734Z,69.90
2017-10-20T13:45:40.040Z,70.20
2017-10-20T13:48:08.458Z,68.70
2017-10-20T13:50:36.774Z,65.60
2017-10-20T13:53:05.093Z,64.80
2017-10-20T13:55:33.405Z,64.60
2017-10-20T13:58:01.724Z,65.10
2017-10-20T14:00:30.046Z,63.80
2017-10-20T14:02:58.361Z,62.50
2017-10-20T14:05:26.712Z,62.80
2017-10-20T14:07:55.935Z,62.10
2017-10-20T14:10:24.278Z,62.00
2017-10-20T14:12:52.607Z,61.30
2017-10-20T14:15:20.893Z,61.00
2017-10-20T14:17:50.011Z,67.20
2017-10-20T14:20:18.381Z,67.20
2017-10-20T14:22:46.706Z,62.40
2017-10-20T14:25:14.994Z,61.70
2017-10-20T14:27:44.210Z,60.90
2017-10-20T14:30:12.512Z,59.70
2017-10-20T14:32:40.841Z,60.60
2017-10-20T14:35:09.213Z,59.90
2017-10-20T14:37:37.562Z,60.30
2017-10-20T14:40:05.864Z,60.30
2017-10-20T14:42:34.235Z,59.20
2017-10-20T14:45:03.337Z,59.90
2017-10-20T14:47:31.681Z,59.90
2017-10-20T14:50:00.038Z,60.90
2017-10-20T14:52:28.498Z,60.50
2017-10-20T14:55:12.669Z,61.00
2017-10-20T14:57:41.774Z,59.80
2017-10-20T15:00:10.168Z,59.80
2017-10-20T15:02:38.491Z,59.90
2017-10-20T15:05:07.810Z,59.80
2017-10-20T15:07:37.031Z,58.90
2017-10-20T15:10:06.137Z,58.40
2017-10-20T15:12:34.468Z,58.40
2017-10-20T15:15:03.922Z,58.80
2017-10-20T15:17:32.262Z,58.70
2017-10-20T15:20:00.651Z,59.10
2017-10-20T15:22:29.023Z,59.70
2017-10-20T15:24:57.332Z,59.00
2017-10-20T15:27:28.415Z,59.60
2017-10-20T15:29:58.546Z,59.50
2017-10-20T15:32:26.913Z,60.40
2017-10-20T15:34:57.030Z,61.50
2017-10-20T15:37:26.140Z,60.80
2017-10-20T15:39:54.422Z,60.80
2017-10-20T15:42:22.817Z,61.90
2017-10-20T15:44:51.395Z,62.00
2017-10-20T15:47:20.769Z,62.50
2017-10-20T15:49:49.881Z,63.60
2017-10-20T15:52:18.203Z,63.30
2017-10-20T15:54:47.375Z,63.40
2017-10-20T15:57:15.691Z,63.30
2017-10-20T15:59:44.136Z,63.40
2017-10-20T16:02:13.421Z,63.70
2017-10-20T16:04:41.784Z,64.60
2017-10-20T16:07:10.919Z,64.90
2017-10-20T16:09:40.297Z,64.90
2017-10-20T16:12:09.166Z,65.50
2017-10-20T16:14:37.848Z,66.00
2017-10-20T16:17:07.883Z,66.80
2017-10-20T16:19:36.189Z,67.00
2017-10-20T16:22:04.637Z,66.80
2017-10-20T16:24:35.358Z,67.30
2017-10-20T16:27:14.264Z,67.60
2017-10-20T16:29:48.681Z,68.80
2017-10-20T16:32:18.452Z,69.00
2017-10-20T16:34:50.115Z,69.00
2017-10-20T16:37:25.618Z,70.40
2017-10-20T16:39:54.132Z,70.40
2017-10-20T16:42:26.292Z,71.00
2017-10-20T16:44:54.589Z,71.60
2017-10-20T16:47:23.048Z,72.00
2017-10-20T16:49:52.323Z,72.30
2017-10-20T16:52:21.407Z,72.20
2017-10-20T16:54:50.745Z,73.00
2017-10-20T16:57:19.116Z,73.20
2017-10-20T16:59:48.250Z,73.60
2017-10-20T17:02:17.400Z,74.20
2017-10-20T17:04:45.712Z,74.20
2017-10-20T17:07:14.825Z,74.70
2017-10-20T17:09:43.103Z,74.60
2017-10-20T17:12:12.000Z,75.30
2017-10-20T17:14:40.384Z,75.90
2017-10-20T17:17:08.977Z,76.70
2017-10-20T17:19:38.165Z,78.10
2017-10-20T17:22:06.528Z,78.10
2017-10-20T17:24:35.032Z,78.40
2017-10-20T17:27:03.644Z,79.10
2017-10-20T17:29:32.020Z,79.80
2017-10-20T17:32:01.052Z,80.70
2017-10-20T17:34:29.397Z,80.50
2017-10-20T17:36:57.792Z,81.00
2017-10-20T17:39:26.914Z,81.40
2017-10-20T17:41:56.185Z,81.40
2017-10-20T17:44:24.615Z,81.50
2017-10-20T17:46:53.170Z,82.50
2017-10-20T17:49:22.785Z,82.30
2017-10-20T17:51:52.020Z,82.90
2017-10-20T17:54:20.481Z,82.90
2017-10-20T17:56:49.703Z,83.40
2017-10-20T17:59:20.513Z,83.60
2017-10-20T18:01:50.893Z,83.80
2017-10-20T18:04:29.055Z,84.00
2017-10-20T18:07:01.916Z,84.80
2017-10-20T18:09:30.302Z,85.10
2017-10-20T18:12:00.498Z,85.40
2017-10-20T18:14:28.865Z,85.80
2017-10-20T18:16:58.232Z,85.40
2017-10-20T18:19:28.258Z,85.90
2017-10-20T18:21:58.348Z,86.30
2017-10-20T18:29:01.963Z,87.30
2017-10-20T18:31:59.116Z,88.00
2017-10-20T18:34:30.507Z,88.50
2017-10-20T18:36:58.935Z,89.70
2017-10-20T18:39:28.258Z,89.60
2017-10-20T18:41:56.983Z,89.60
2017-10-20T18:44:26.100Z,89.00
2017-10-20T18:46:54.972Z,89.10
2017-10-20T18:49:23.312Z,89.90
2017-10-20T18:51:51.712Z,90.70
2017-10-20T18:54:20.177Z,90.60
2017-10-20T18:56:48.898Z,90.80
2017-10-20T18:59:23.777Z,91.30
2017-10-20T19:02:03.367Z,90.60
2017-10-20T19:04:32.949Z,91.00
2017-10-20T19:07:02.851Z,91.40
2017-10-20T19:09:34.201Z,91.20
2017-10-20T19:12:04.232Z,90.60
2017-10-20T19:14:33.758Z,90.00
2017-10-20T19:17:02.163Z,90.70
2017-10-20T19:19:30.503Z,90.10
2017-10-20T19:21:59.073Z,92.20
2017-10-20T19:24:30.213Z,91.50
2017-10-20T19:27:00.873Z,91.20
2017-10-20T19:29:39.446Z,92.10
2017-10-20T19:32:17.674Z,92.40
2017-10-20T19:34:47.242Z,93.00
2017-10-20T19:37:20.444Z,92.10
2017-10-20T19:40:08.297Z,92.50
2017-10-20T19:42:37.502Z,91.80
2017-10-20T19:45:58.788Z,92.00
2017-10-20T19:48:29.864Z,91.60
2017-10-20T19:50:58.307Z,92.50
2017-10-20T19:53:27.685Z,91.70
2017-10-20T19:56:00.987Z,91.10
2017-10-20T19:58:29.328Z,90.70
2017-10-20T20:01:07.082Z,90.80
2017-10-20T20:03:35.536Z,90.80
2017-10-20T20:06:03.843Z,90.30
2017-10-20T20:08:32.247Z,90.60
2017-10-20T20:11:00.976Z,90.40
2017-10-20T20:13:29.307Z,90.80
2017-10-20T20:15:58.356Z,90.80
2017-10-20T20:18:26.803Z,90.60
2017-10-20T20:20:55.149Z,90.70
2017-10-20T20:23:23.438Z,91.20
2017-10-20T20:25:51.824Z,91.30
2017-10-20T20:28:20.184Z,91.60
2017-10-20T20:30:50.228Z,91.30
2017-10-20T20:33:19.598Z,91.50
2017-10-20T20:35:48.624Z,91.60
2017-10-20T20:38:23.902Z,92.60
2017-10-20T20:40:53.041Z,91.60
2017-10-20T20:43:21.459Z,92.30
2017-10-20T20:45:52.825Z,92.10
2017-10-20T20:48:21.148Z,92.70
2017-10-20T20:50:50.246Z,92.60
2017-10-20T20:53:18.613Z,92.90
2017-10-20T20:55:48.090Z,92.80
2017-10-20T20:58:16.494Z,92.50
2017-10-20T21:00:44.886Z,92.90
2017-10-20T21:03:13.223Z,93.10
2017-10-20T21:05:42.308Z,93.40
2017-10-20T21:08:11.369Z,93.40
2017-10-20T21:10:39.656Z,93.10
2017-10-20T21:13:08.030Z,94.80
2017-10-20T21:15:36.351Z,94.00
2017-10-20T21:18:04.829Z,94.10
2017-10-20T21:20:33.277Z,95.00
2017-10-20T21:23:01.652Z,94.70
2017-10-20T21:25:30.007Z,94.70
2017-10-20T21:27:58.292Z,95.10
2017-10-20T21:30:26.646Z,95.20
2017-10-20T21:32:54.966Z,95.30
2017-10-20T21:35:23.306Z,95.30
2017-10-20T21:37:51.636Z,95.40
2017-10-20T21:40:19.971Z,96.00
2017-10-20T21:42:48.255Z,95.50
2017-10-20T21:45:16.568Z,95.70
2017-10-20T21:47:45.475Z,95.90
2017-10-20T21:50:14.302Z,96.20
2017-10-20T21:52:43.515Z,96.60
2017-10-20T21:55:11.810Z,96.50
2017-10-20T21:57:42.467Z,97.80
2017-10-20T22:00:11.524Z,98.00
2017-10-20T22:02:39.918Z,98.00
2017-10-20T22:05:08.976Z,98.70
2017-10-20T22:07:37.924Z,98.70
2017-10-20T22:10:06.259Z,99.00
2017-10-20T22:12:35.521Z,99.10
2017-10-20T22:15:06.175Z,98.20
2017-10-20T22:17:34.500Z,98.20
2017-10-20T22:20:05.580Z,98.10
2017-10-20T22:22:35.571Z,98.60
2017-10-20T22:25:13.566Z,98.70
2017-10-20T22:27:42.633Z,97.30
2017-10-20T22:30:11.006Z,97.40
2017-10-20T22:32:39.312Z,97.70
2017-10-20T22:35:09.113Z,98.50
2017-10-20T22:37:37.469Z,98.50
2017-10-20T22:40:05.854Z,98.00
2017-10-20T22:42:34.856Z,98.30
2017-10-20T22:45:03.165Z,98.90
2017-10-20T22:47:32.281Z,98.80
2017-10-20T22:50:00.658Z,98.80
2017-10-20T22:52:28.987Z,99.70
2017-10-20T22:54:57.461Z,99.70
2017-10-20T22:57:26.516Z,99.00
2017-10-20T22:59:56.583Z,99.70
2017-10-20T23:02:24.919Z,99.60
2017-10-20T23:04:53.312Z,99.50
2017-10-20T23:07:21.762Z,99.90
2017-10-20T23:10:00.496Z,99.50
2017-10-20T23:12:28.857Z,99.60
2017-10-20T23:14:57.201Z,99.90
2017-10-20T23:17:27.027Z,98.90
2017-10-20T23:19:55.392Z,98.90
2017-10-20T23:22:25.009Z,99.20
2017-10-20T23:24:53.529Z,99.80
2017-10-20T23:27:22.009Z,99.90
2017-10-20T23:29:52.440Z,99.90
2017-10-20T23:32:24.680Z,99.90
2017-10-20T23:34:57.583Z,99.90
2017-10-20T23:37:31.035Z,99.90
2017-10-20T23:40:00.132Z,99.90
2017-10-20T23:42:28.496Z,99.90
2017-10-20T23:44:58.762Z,99.90
2017-10-20T23:47:31.152Z,99.90
2017-10-20T23:49:59.499Z,99.90
2017-10-20T23:52:27.848Z,99.90
2017-10-20T23:54:56.586Z,99.90
2017-10-20T23:57:24.872Z,99.90
2017-10-20T23:59:53.415Z,99.90
